Asukamaru — JG5536 — position and weather

sailwx.info

Track history (hours):
 
Tides and Currents Weather Stations Pressure Air Temp Water Temp Dewpoint Dewpoint Depression Visibility Wind Speed Wind Dir Waves Ship Positions

Asukamaru

Last reported at 2014-Dec-17 15:33 UTC. Time now 2014-Dec-18 20:59 UTC.
Position N 35°37' E 139°46'.

Length 31 m; draft 3 m.

Type: Tug. MMSI: 431001145.

Date/timePositionNaut miles runAvg speedWind from/ knotsBaromVisibWave heightAir tempDewpointWater temp
2014-Dec-17 15:33N 35°37' E 139°46'1 1.0
2014-Dec-17 14:29N 35°37' E 139°47'2 0.1
2014-Dec-17 01:12N 35°38' E 139°46'2 1.0
2014-Dec-16 23:09N 35°36' E 139°47'0 0.7
2014-Dec-16 22:32N 35°36' E 139°47'3 2.5
2014-Dec-16 21:31N 35°34' E 139°50'4 4.2
2014-Dec-16 20:33N 35°37' E 139°46'1 0.1
2014-Dec-16 09:15N 35°37' E 139°46'1 1.3
2014-Dec-16 08:33N 35°37' E 139°46'1 0.3
2014-Dec-16 06:26N 35°36' E 139°46'2 0.1
2014-Dec-14 22:20N 35°38' E 139°45'0 0.0
2014-Dec-13 23:08N 35°38' E 139°46'2 3.5
2014-Dec-13 22:31N 35°36' E 139°47'3 0.1
2014-Dec-12 09:03N 35°34' E 139°49'4 6.4
2014-Dec-12 08:28N 35°37' E 139°46'0 0.0
2014-Dec-12 02:32N 35°37' E 139°46'4 3.7
2014-Dec-12 01:33N 35°34' E 139°49'2 0.2
2014-Dec-11 11:28N 35°36' E 139°48'2 2.3
2014-Dec-11 10:30N 35°34' E 139°49'5 4.3
2014-Dec-11 09:25N 35°38' E 139°46'3 0.1
2014-Dec-09 09:23N 35°35' E 139°48'1 1.0
2014-Dec-09 08:31N 35°35' E 139°47'0 0.0
2014-Dec-09 07:29N 35°35' E 139°47'0 0.0
2014-Dec-09 06:32N 35°35' E 139°47'0 0.0
2014-Dec-09 05:29N 35°35' E 139°47'  
Track history (hours):
 
Tides and Currents Weather Stations Pressure Air Temp Water Temp Dewpoint Dewpoint Depression Visibility Wind Speed Wind Dir Waves Ship Positions

Asukamaru

Last reported at 2014-Dec-17 15:33 UTC. Time now 2014-Dec-18 20:59 UTC.
Position N 35°37' E 139°46'.

Length 31 m; draft 3 m.

Type: Tug. MMSI: 431001145.

Date/timePositionNaut miles runAvg speedWind from/ knotsBaromVisibWave heightAir tempDewpointWater temp
2014-Dec-17 15:33N 35°37' E 139°46'1 1.0
2014-Dec-17 14:29N 35°37' E 139°47'2 0.1
2014-Dec-17 01:12N 35°38' E 139°46'2 1.0
2014-Dec-16 23:09N 35°36' E 139°47'0 0.7
2014-Dec-16 22:32N 35°36' E 139°47'3 2.5
2014-Dec-16 21:31N 35°34' E 139°50'4 4.2
2014-Dec-16 20:33N 35°37' E 139°46'1 0.1
2014-Dec-16 09:15N 35°37' E 139°46'1 1.3
2014-Dec-16 08:33N 35°37' E 139°46'1 0.3
2014-Dec-16 06:26N 35°36' E 139°46'2 0.1
2014-Dec-14 22:20N 35°38' E 139°45'0 0.0
2014-Dec-13 23:08N 35°38' E 139°46'2 3.5
2014-Dec-13 22:31N 35°36' E 139°47'3 0.1
2014-Dec-12 09:03N 35°34' E 139°49'4 6.4
2014-Dec-12 08:28N 35°37' E 139°46'0 0.0
2014-Dec-12 02:32N 35°37' E 139°46'4 3.7
2014-Dec-12 01:33N 35°34' E 139°49'2 0.2
2014-Dec-11 11:28N 35°36' E 139°48'2 2.3
2014-Dec-11 10:30N 35°34' E 139°49'5 4.3
2014-Dec-11 09:25N 35°38' E 139°46'3 0.1
2014-Dec-09 09:23N 35°35' E 139°48'1 1.0
2014-Dec-09 08:31N 35°35' E 139°47'0 0.0
2014-Dec-09 07:29N 35°35' E 139°47'0 0.0
2014-Dec-09 06:32N 35°35' E 139°47'0 0.0
2014-Dec-09 05:29N 35°35' E 139°47'  

Dump ship's entire track history